Time;durP1;ratioP1;P1;durP2;ratioP2;P2;SDS_P1;SDS_P2;PMS_P1;PMS_P2;Temp;Humidity;BMP_temperature;BMP_pressure;BME280_temperature;BME280_humidity;BME280_pressure;Samples;Min_cycle;Max_cycle;Signal;HPM_P1;HPM_P2
2023/09/08 00:00:59;;;;;;;9.30;4.95;;;;;;;;;;4976278;28;20035;-75
2023/09/08 00:03:25;;;;;;;6.38;4.95;;;;;;;;;;4987931;28;20026;-75
2023/09/08 00:05:51;;;;;;;9.93;5.32;;;;;;;;;;4979693;28;20302;-75
2023/09/08 00:08:18;;;;;;;9.00;5.13;;;;;;;;;;4986734;28;20451;-75
2023/09/08 00:10:44;;;;;;;12.88;5.20;;;;;;;;;;4985610;28;20039;-75
2023/09/08 00:13:10;;;;;;;6.45;4.70;;;;;;;;;;4987832;28;20034;-75
2023/09/08 00:15:37;;;;;;;7.20;5.35;;;;;;;;;;4982856;28;20081;-74
2023/09/08 00:18:03;;;;;;;9.38;6.00;;;;;;;;;;4984734;28;20058;-75
2023/09/08 00:20:29;;;;;;;8.30;4.63;;;;;;;;;;4985277;28;20538;-75
2023/09/08 00:22:55;;;;;;;8.90;5.63;;;;;;;;;;4994355;28;20034;-75
2023/09/08 00:25:21;;;;;;;7.22;5.20;;;;;;;;;;4984418;28;20038;-75
2023/09/08 00:27:47;;;;;;;9.63;6.88;;;;;;;;;;4986124;28;20045;-75
2023/09/08 00:30:13;;;;;;;7.07;5.38;;;;;;;;;;4978735;28;20061;-75
2023/09/08 00:32:39;;;;;;;15.02;5.47;;;;;;;;;;4994637;28;20074;-75
2023/09/08 00:35:08;;;;;;;10.60;4.95;;;;;;;;;;4987501;28;21001;-75
2023/09/08 00:37:34;;;;;;;6.35;5.55;;;;;;;;;;4986816;28;20134;-74
2023/09/08 00:40:00;;;;;;;8.32;5.60;;;;;;;;;;4987311;28;20090;-75
2023/09/08 00:42:26;;;;;;;8.95;5.65;;;;;;;;;;4992018;28;20113;-75
2023/09/08 00:44:52;;;;;;;9.68;5.28;;;;;;;;;;4984414;28;20609;-75
2023/09/08 00:47:18;;;;;;;8.38;5.85;;;;;;;;;;4992535;28;20038;-74
2023/09/08 00:49:45;;;;;;;8.07;5.95;;;;;;;;;;4983804;28;20030;-75
2023/09/08 00:52:11;;;;;;;6.78;5.35;;;;;;;;;;4982848;28;20057;-74
2023/09/08 00:54:37;;;;;;;9.05;5.18;;;;;;;;;;4988928;28;20400;-75
2023/09/08 00:57:04;;;;;;;8.38;5.70;;;;;;;;;;4986931;28;20034;-75
2023/09/08 00:59:31;;;;;;;7.47;5.18;;;;;;;;;;4981918;28;20050;-75
2023/09/08 01:01:57;;;;;;;12.10;6.13;;;;;;;;;;4986124;28;20022;-75
2023/09/08 01:04:23;;;;;;;8.13;5.80;;;;;;;;;;4978339;28;20040;-75
2023/09/08 01:06:50;;;;;;;6.45;5.85;;;;;;;;;;4994243;28;20039;-75
2023/09/08 01:09:16;;;;;;;9.25;6.07;;;;;;;;;;4999634;28;20066;-75
2023/09/08 01:11:43;;;;;;;7.40;5.25;;;;;;;;;;4981745;28;20149;-75
2023/09/08 01:14:09;;;;;;;11.25;6.22;;;;;;;;;;4988074;28;20041;-75
2023/09/08 01:16:35;;;;;;;7.97;5.63;;;;;;;;;;4981396;28;20046;-75
2023/09/08 01:19:01;;;;;;;10.63;6.53;;;;;;;;;;4983927;28;20455;-75
2023/09/08 01:21:56;;;;;;;11.45;5.55;;;;;;;;;;4991641;28;20109;-75
2023/09/08 01:24:28;;;;;;;12.18;5.90;;;;;;;;;;4973269;28;20459;-75
2023/09/08 01:26:54;;;;;;;11.07;5.68;;;;;;;;;;4984464;28;20365;-75
2023/09/08 01:29:24;;;;;;;9.70;6.03;;;;;;;;;;4980199;28;20670;-75
2023/09/08 01:31:50;;;;;;;8.50;5.80;;;;;;;;;;4981239;28;20122;-75
2023/09/08 01:34:16;;;;;;;8.85;6.43;;;;;;;;;;4979918;28;20590;-75
2023/09/08 01:36:43;;;;;;;11.70;5.60;;;;;;;;;;4987012;28;20076;-75
2023/09/08 01:39:09;;;;;;;9.65;5.85;;;;;;;;;;4986802;28;20040;-76
2023/09/08 01:41:35;;;;;;;7.97;6.28;;;;;;;;;;4984536;28;20030;-75
2023/09/08 01:44:05;;;;;;;8.10;5.88;;;;;;;;;;4984032;28;20036;-75
2023/09/08 01:46:31;;;;;;;10.32;6.38;;;;;;;;;;4983486;28;20061;-75
2023/09/08 01:48:57;;;;;;;9.82;5.97;;;;;;;;;;4978619;28;20527;-75
2023/09/08 01:51:23;;;;;;;8.05;6.45;;;;;;;;;;4981604;28;20038;-75
2023/09/08 01:53:49;;;;;;;7.25;6.03;;;;;;;;;;4981781;28;20183;-75
2023/09/08 01:56:15;;;;;;;10.70;6.07;;;;;;;;;;4985777;28;20045;-76
2023/09/08 01:58:41;;;;;;;8.30;6.95;;;;;;;;;;4987239;28;20027;-74
2023/09/08 02:01:07;;;;;;;13.05;6.45;;;;;;;;;;4976759;28;20092;-74
2023/09/08 02:03:33;;;;;;;8.85;6.13;;;;;;;;;;4983564;28;20042;-75
2023/09/08 02:05:59;;;;;;;7.32;6.30;;;;;;;;;;4986205;28;20034;-75
2023/09/08 02:08:25;;;;;;;9.55;6.18;;;;;;;;;;4982773;28;20550;-75
2023/09/08 02:10:51;;;;;;;12.75;6.15;;;;;;;;;;4984102;28;20038;-75
2023/09/08 02:13:17;;;;;;;9.68;6.38;;;;;;;;;;4979709;28;20436;-75
2023/09/08 02:15:43;;;;;;;11.00;7.07;;;;;;;;;;4992080;28;20047;-75
2023/09/08 02:18:09;;;;;;;8.05;7.05;;;;;;;;;;4983739;28;20388;-74
2023/09/08 02:20:35;;;;;;;9.95;6.13;;;;;;;;;;4982665;28;20651;-74
2023/09/08 02:23:05;;;;;;;9.75;6.97;;;;;;;;;;4982487;28;20038;-74
2023/09/08 02:25:31;;;;;;;8.15;7.35;;;;;;;;;;4983244;28;20046;-75
2023/09/08 02:27:57;;;;;;;12.38;6.50;;;;;;;;;;4983711;28;20034;-75
2023/09/08 02:30:23;;;;;;;10.88;7.53;;;;;;;;;;4978591;28;20334;-74
2023/09/08 02:32:49;;;;;;;9.30;6.97;;;;;;;;;;4982373;28;20033;-75
2023/09/08 02:35:15;;;;;;;9.75;6.90;;;;;;;;;;4981982;28;20030;-74
2023/09/08 02:37:41;;;;;;;12.65;6.57;;;;;;;;;;4980108;28;20196;-75
2023/09/08 02:40:07;;;;;;;7.78;6.90;;;;;;;;;;4977549;28;20038;-75
2023/09/08 02:42:33;;;;;;;9.13;6.50;;;;;;;;;;4988688;28;20559;-75
2023/09/08 02:44:59;;;;;;;8.13;6.70;;;;;;;;;;4980506;28;20046;-75
2023/09/08 02:47:25;;;;;;;15.18;7.45;;;;;;;;;;4987498;28;20027;-74
2023/09/08 02:49:51;;;;;;;7.35;6.63;;;;;;;;;;4983092;28;20599;-75
2023/09/08 02:52:19;;;;;;;15.50;6.32;;;;;;;;;;4981081;28;20049;-75
2023/09/08 02:54:45;;;;;;;10.70;6.25;;;;;;;;;;4982564;28;20770;-74
2023/09/08 02:57:11;;;;;;;11.32;7.25;;;;;;;;;;4984618;28;20629;-75
2023/09/08 02:59:37;;;;;;;7.93;6.65;;;;;;;;;;4985883;28;20451;-75
2023/09/08 03:02:03;;;;;;;9.23;6.68;;;;;;;;;;4984026;28;20073;-75
2023/09/08 03:04:29;;;;;;;9.73;6.85;;;;;;;;;;4989107;28;20053;-75
2023/09/08 03:06:56;;;;;;;10.65;7.20;;;;;;;;;;4980623;28;20168;-74
2023/09/08 03:09:22;;;;;;;12.02;6.70;;;;;;;;;;4983839;28;20033;-75
2023/09/08 03:11:48;;;;;;;9.00;6.60;;;;;;;;;;4977521;28;20043;-75
2023/09/08 03:14:14;;;;;;;8.40;6.95;;;;;;;;;;4979512;28;20081;-75
2023/09/08 03:16:40;;;;;;;11.32;7.68;;;;;;;;;;4979116;28;20069;-74
2023/09/08 03:19:06;;;;;;;10.02;7.75;;;;;;;;;;4983181;28;20206;-74
2023/09/08 03:21:32;;;;;;;9.25;7.55;;;;;;;;;;4977473;28;20138;-74
2023/09/08 03:23:58;;;;;;;9.02;7.50;;;;;;;;;;4987010;28;20568;-74
2023/09/08 03:26:24;;;;;;;9.77;8.15;;;;;;;;;;4979406;28;20488;-74
2023/09/08 03:28:50;;;;;;;9.98;7.55;;;;;;;;;;4977428;28;20027;-75
2023/09/08 03:31:16;;;;;;;7.97;7.13;;;;;;;;;;4986018;28;20084;-74
2023/09/08 03:33:42;;;;;;;8.57;7.22;;;;;;;;;;4984359;28;20038;-75
2023/09/08 03:36:08;;;;;;;11.50;6.97;;;;;;;;;;4982825;28;20027;-75
2023/09/08 03:38:36;;;;;;;12.63;7.53;;;;;;;;;;4987468;28;20472;-74
2023/09/08 03:41:03;;;;;;;11.90;7.30;;;;;;;;;;4987497;28;20047;-74
2023/09/08 03:43:29;;;;;;;11.70;7.93;;;;;;;;;;5002023;28;20058;-75
2023/09/08 03:45:55;;;;;;;9.93;8.15;;;;;;;;;;4983767;28;20058;-74
2023/09/08 03:48:21;;;;;;;12.20;7.97;;;;;;;;;;4984065;28;20476;-75
2023/09/08 03:50:47;;;;;;;12.00;8.43;;;;;;;;;;4985566;28;20043;-74
2023/09/08 03:53:13;;;;;;;11.32;7.57;;;;;;;;;;5007630;28;20165;-74
2023/09/08 03:55:39;;;;;;;9.43;8.38;;;;;;;;;;4980784;28;20085;-75
2023/09/08 03:58:05;;;;;;;11.05;8.00;;;;;;;;;;4993745;28;20109;-74
2023/09/08 04:00:31;;;;;;;9.20;8.20;;;;;;;;;;4982554;28;20069;-74
2023/09/08 04:02:57;;;;;;;9.05;7.70;;;;;;;;;;4987110;28;20038;-74
2023/09/08 04:05:23;;;;;;;10.55;7.90;;;;;;;;;;4986552;28;20134;-74
2023/09/08 04:07:49;;;;;;;12.13;8.35;;;;;;;;;;4989717;28;20026;-74
2023/09/08 04:10:15;;;;;;;8.25;7.13;;;;;;;;;;4984993;28;20588;-76
2023/09/08 04:12:41;;;;;;;9.95;7.78;;;;;;;;;;4982217;28;20117;-75
2023/09/08 04:15:08;;;;;;;13.82;8.38;;;;;;;;;;4979933;28;20042;-75
2023/09/08 04:17:35;;;;;;;9.88;7.78;;;;;;;;;;5000721;28;20054;-75
2023/09/08 04:20:04;;;;;;;11.93;8.18;;;;;;;;;;4982463;28;20058;-75
2023/09/08 04:22:30;;;;;;;9.27;8.32;;;;;;;;;;4987370;28;20042;-74
2023/09/08 04:24:57;;;;;;;12.57;8.55;;;;;;;;;;4989105;28;20049;-75
2023/09/08 04:27:23;;;;;;;16.00;8.50;;;;;;;;;;4984649;28;20117;-75
2023/09/08 04:29:49;;;;;;;12.18;8.88;;;;;;;;;;4986291;28;20042;-75
2023/09/08 04:32:15;;;;;;;10.07;8.35;;;;;;;;;;4982521;28;20128;-74
2023/09/08 04:34:41;;;;;;;9.55;8.50;;;;;;;;;;4980323;28;20039;-74
2023/09/08 04:37:08;;;;;;;16.50;9.35;;;;;;;;;;4979053;28;20080;-76
2023/09/08 04:39:34;;;;;;;12.13;8.52;;;;;;;;;;4978112;28;20113;-77
2023/09/08 04:42:00;;;;;;;9.65;8.65;;;;;;;;;;4978108;28;20165;-75
2023/09/08 04:44:26;;;;;;;13.50;8.65;;;;;;;;;;4978127;28;20034;-76
2023/09/08 04:46:53;;;;;;;81.20;56.22;;;;;;;;;;4977599;28;20409;-79
2023/09/08 04:49:19;;;;;;;9.88;8.88;;;;;;;;;;4983880;28;20031;-77
2023/09/08 04:51:45;;;;;;;46.67;36.22;;;;;;;;;;4979403;28;20081;-80
2023/09/08 04:54:11;;;;;;;34.10;23.58;;;;;;;;;;4983494;28;20045;-81
2023/09/08 04:56:38;;;;;;;11.85;8.35;;;;;;;;;;4990121;28;20488;-78
2023/09/08 04:59:04;;;;;;;12.02;10.77;;;;;;;;;;4990077;28;20026;-77
2023/09/08 05:01:32;;;;;;;13.15;8.88;;;;;;;;;;4988732;28;20488;-75
2023/09/08 05:03:59;;;;;;;9.95;8.10;;;;;;;;;;4988098;28;20054;-76
2023/09/08 05:06:25;;;;;;;13.52;8.75;;;;;;;;;;4985905;28;20039;-77
2023/09/08 05:08:51;;;;;;;12.68;9.13;;;;;;;;;;4984693;28;20503;-74
2023/09/08 05:11:18;;;;;;;12.45;8.98;;;;;;;;;;4987009;28;20042;-76
2023/09/08 05:13:45;;;;;;;12.88;9.27;;;;;;;;;;4986863;28;20623;-75
2023/09/08 05:16:11;;;;;;;75.97;55.67;;;;;;;;;;4986052;28;20030;-80
2023/09/08 05:18:38;;;;;;;28.77;21.15;;;;;;;;;;4994004;28;20100;-78
2023/09/08 05:21:04;;;;;;;101.40;73.40;;;;;;;;;;4988623;28;20535;-81
2023/09/08 05:23:30;;;;;;;13.70;10.80;;;;;;;;;;4989537;28;20026;-80
2023/09/08 05:25:56;;;;;;;15.40;9.30;;;;;;;;;;4986747;28;20038;-77
2023/09/08 05:28:22;;;;;;;12.23;9.55;;;;;;;;;;4990363;28;20042;-76
2023/09/08 05:30:51;;;;;;;12.68;8.85;;;;;;;;;;4979684;28;20038;-75
2023/09/08 05:33:17;;;;;;;10.15;8.80;;;;;;;;;;4979144;28;20092;-75
2023/09/08 05:35:43;;;;;;;16.80;9.43;;;;;;;;;;4986362;28;20246;-76
2023/09/08 05:38:09;;;;;;;10.88;9.25;;;;;;;;;;4983943;28;20030;-77
2023/09/08 05:40:35;;;;;;;12.23;9.27;;;;;;;;;;4984573;28;20045;-75
2023/09/08 05:43:02;;;;;;;24.17;18.30;;;;;;;;;;4982620;28;20113;-79
2023/09/08 05:45:28;;;;;;;45.67;32.80;;;;;;;;;;4998166;28;20180;-75
2023/09/08 05:47:54;;;;;;;14.73;11.52;;;;;;;;;;4983695;28;20500;-79
2023/09/08 05:50:20;;;;;;;17.70;9.80;;;;;;;;;;4982385;28;20045;-75
2023/09/08 05:52:46;;;;;;;13.30;9.40;;;;;;;;;;4979987;28;20129;-76
2023/09/08 05:55:12;;;;;;;14.07;9.98;;;;;;;;;;4980498;28;20041;-76
2023/09/08 05:57:38;;;;;;;9.70;8.55;;;;;;;;;;4985472;28;20026;-76
2023/09/08 06:00:05;;;;;;;13.23;9.38;;;;;;;;;;4980639;28;20105;-77
2023/09/08 06:02:31;;;;;;;15.65;9.30;;;;;;;;;;4982523;28;20035;-76
2023/09/08 06:04:57;;;;;;;12.75;9.57;;;;;;;;;;4983821;28;20045;-76
2023/09/08 06:07:23;;;;;;;11.68;8.20;;;;;;;;;;4985951;28;20068;-76
2023/09/08 06:09:49;;;;;;;10.05;8.68;;;;;;;;;;4984004;28;20096;-76
2023/09/08 06:12:15;;;;;;;15.65;8.43;;;;;;;;;;4982021;28;20132;-76
2023/09/08 06:14:41;;;;;;;16.65;8.57;;;;;;;;;;4983610;28;20504;-76
2023/09/08 06:17:08;;;;;;;10.15;8.45;;;;;;;;;;4984584;28;20404;-76
2023/09/08 06:19:34;;;;;;;13.07;9.25;;;;;;;;;;4975371;28;20050;-76
2023/09/08 06:22:00;;;;;;;12.88;8.65;;;;;;;;;;4983967;28;20112;-76
2023/09/08 06:24:26;;;;;;;11.32;7.88;;;;;;;;;;4981124;28;20513;-76
2023/09/08 06:26:52;;;;;;;9.10;8.07;;;;;;;;;;4982447;28;20081;-76
2023/09/08 06:29:18;;;;;;;9.05;7.75;;;;;;;;;;4985256;28;20093;-76
2023/09/08 06:31:44;;;;;;;10.75;7.63;;;;;;;;;;4985671;28;20053;-77
2023/09/08 06:34:10;;;;;;;12.90;8.23;;;;;;;;;;4982534;28;20042;-77
2023/09/08 06:36:36;;;;;;;13.73;7.40;;;;;;;;;;4982657;28;20530;-76
2023/09/08 06:39:03;;;;;;;11.50;8.10;;;;;;;;;;4998415;28;20137;-77
2023/09/08 06:41:29;;;;;;;13.85;8.02;;;;;;;;;;4987562;28;20536;-77
2023/09/08 06:43:55;;;;;;;10.40;7.85;;;;;;;;;;4986811;28;20026;-77
2023/09/08 06:46:22;;;;;;;8.82;7.93;;;;;;;;;;4985157;28;20495;-77
2023/09/08 06:48:48;;;;;;;13.23;8.18;;;;;;;;;;4982728;28;20035;-77
2023/09/08 06:51:14;;;;;;;9.30;7.50;;;;;;;;;;4973797;28;20045;-76
2023/09/08 06:53:40;;;;;;;13.77;7.93;;;;;;;;;;4998988;28;20034;-81
2023/09/08 06:56:06;;;;;;;11.15;7.60;;;;;;;;;;4979667;28;20109;-81
2023/09/08 06:58:32;;;;;;;9.50;7.68;;;;;;;;;;4982360;28;20110;-80
2023/09/08 07:00:58;;;;;;;7.60;6.47;;;;;;;;;;4979857;28;20093;-78
2023/09/08 07:03:24;;;;;;;11.77;7.82;;;;;;;;;;4985012;28;20042;-78
2023/09/08 07:05:50;;;;;;;14.02;11.18;;;;;;;;;;4980931;28;20365;-78
2023/09/08 07:08:17;;;;;;;12.05;7.93;;;;;;;;;;4982953;28;20115;-79
2023/09/08 07:10:44;;;;;;;10.15;7.55;;;;;;;;;;4988766;28;20447;-80
2023/09/08 07:13:10;;;;;;;25.02;20.05;;;;;;;;;;4986711;28;20038;-79
2023/09/08 07:15:36;;;;;;;11.20;7.70;;;;;;;;;;4982204;28;20015;-74
2023/09/08 07:18:02;;;;;;;9.05;7.30;;;;;;;;;;4992433;28;20031;-72
2023/09/08 07:20:28;;;;;;;10.77;7.38;;;;;;;;;;4980118;28;20097;-72
2023/09/08 07:22:54;;;;;;;9.27;7.00;;;;;;;;;;4987614;28;20571;-72
2023/09/08 07:25:20;;;;;;;9.63;6.65;;;;;;;;;;4985562;28;20062;-73
2023/09/08 07:27:46;;;;;;;27.08;22.08;;;;;;;;;;4999411;28;20052;-79
2023/09/08 07:30:12;;;;;;;36.97;31.75;;;;;;;;;;4982894;28;20844;-78
2023/09/08 07:32:39;;;;;;;12.50;9.93;;;;;;;;;;4987588;28;20473;-79
2023/09/08 07:35:05;;;;;;;7.55;6.68;;;;;;;;;;4985120;28;20487;-82
2023/09/08 07:37:31;;;;;;;9.63;6.32;;;;;;;;;;4983249;28;20384;-83
2023/09/08 07:39:57;;;;;;;6.80;6.10;;;;;;;;;;4991202;28;20042;-83
2023/09/08 07:42:25;;;;;;;11.45;5.82;;;;;;;;;;4989210;28;20030;-86
2023/09/08 07:44:51;;;;;;;11.85;6.43;;;;;;;;;;4988342;28;20116;-84
2023/09/08 07:47:17;;;;;;;11.80;6.60;;;;;;;;;;4983219;28;20460;-85
2023/09/08 07:49:46;;;;;;;8.02;6.05;;;;;;;;;;4982598;28;20773;-82
2023/09/08 07:52:12;;;;;;;9.57;6.43;;;;;;;;;;4985906;28;20053;-85
2023/09/08 07:54:38;;;;;;;13.35;5.97;;;;;;;;;;4985959;28;20552;-84
2023/09/08 07:57:04;;;;;;;11.20;6.05;;;;;;;;;;4979415;28;20038;-86
2023/09/08 07:59:31;;;;;;;9.00;5.43;;;;;;;;;;4988279;28;20428;-86
2023/09/08 08:01:57;;;;;;;19.70;12.90;;;;;;;;;;4981852;28;20146;-81
2023/09/08 08:04:23;;;;;;;17.70;7.05;;;;;;;;;;4981964;28;20046;-85
2023/09/08 08:06:49;;;;;;;62.75;47.72;;;;;;;;;;4992482;28;20030;-79
2023/09/08 08:09:15;;;;;;;11.20;7.30;;;;;;;;;;4998010;28;20094;-76
2023/09/08 08:11:41;;;;;;;6.57;5.45;;;;;;;;;;4985853;28;20042;-76
2023/09/08 08:14:07;;;;;;;13.45;5.97;;;;;;;;;;4983153;28;20038;-76
2023/09/08 08:16:34;;;;;;;9.77;5.45;;;;;;;;;;4984056;28;20065;-76
2023/09/08 08:19:00;;;;;;;8.95;5.85;;;;;;;;;;4985567;28;20050;-76
2023/09/08 08:21:26;;;;;;;9.50;5.30;;;;;;;;;;4985994;28;20030;-76
2023/09/08 08:23:52;;;;;;;12.13;6.40;;;;;;;;;;4990827;28;20143;-76
2023/09/08 08:26:18;;;;;;;9.75;6.00;;;;;;;;;;4985928;28;20161;-76
2023/09/08 08:28:44;;;;;;;13.07;6.43;;;;;;;;;;4990169;28;20400;-76
2023/09/08 08:31:10;;;;;;;11.77;5.70;;;;;;;;;;4985969;28;20576;-77
2023/09/08 08:33:36;;;;;;;7.88;6.22;;;;;;;;;;4989731;28;20122;-76
2023/09/08 08:36:03;;;;;;;8.65;6.68;;;;;;;;;;4985131;28;20057;-76
2023/09/08 08:38:29;;;;;;;6.75;5.40;;;;;;;;;;4985378;28;20109;-76
2023/09/08 08:40:55;;;;;;;10.15;5.97;;;;;;;;;;4984779;28;20041;-76
2023/09/08 08:43:22;;;;;;;6.30;4.88;;;;;;;;;;4982438;28;20031;-76
2023/09/08 08:45:49;;;;;;;10.77;6.28;;;;;;;;;;4976953;28;20046;-76
2023/09/08 08:48:16;;;;;;;13.25;6.15;;;;;;;;;;4981766;28;20042;-77
2023/09/08 08:50:42;;;;;;;9.38;5.28;;;;;;;;;;4981395;28;20084;-76
2023/09/08 08:53:09;;;;;;;7.15;6.00;;;;;;;;;;4983570;28;20042;-77
2023/09/08 08:55:35;;;;;;;10.32;5.75;;;;;;;;;;4987448;28;20030;-77
2023/09/08 08:58:03;;;;;;;7.97;4.78;;;;;;;;;;4985330;28;20030;-77
2023/09/08 09:00:29;;;;;;;9.43;5.85;;;;;;;;;;4985144;28;20110;-77
2023/09/08 09:02:56;;;;;;;8.35;5.35;;;;;;;;;;4984212;28;20038;-77
2023/09/08 09:05:22;;;;;;;8.88;5.40;;;;;;;;;;4987571;28;20539;-77
2023/09/08 09:07:49;;;;;;;7.88;5.13;;;;;;;;;;4986072;28;20037;-76
2023/09/08 09:10:15;;;;;;;6.03;4.80;;;;;;;;;;4983114;28;20395;-77
2023/09/08 09:12:41;;;;;;;8.48;4.75;;;;;;;;;;4983647;28;20048;-78
2023/09/08 09:15:08;;;;;;;8.18;5.00;;;;;;;;;;4984886;28;20201;-77
2023/09/08 09:17:38;;;;;;;6.85;4.65;;;;;;;;;;4997278;28;20034;-78
2023/09/08 09:20:17;;;;;;;8.00;4.80;;;;;;;;;;4983276;28;20080;-77
2023/09/08 09:22:47;;;;;;;9.02;4.45;;;;;;;;;;4980076;28;20034;-78
2023/09/08 09:25:26;;;;;;;6.28;4.70;;;;;;;;;;4977429;28;20056;-77
2023/09/08 09:27:56;;;;;;;5.90;4.10;;;;;;;;;;4981965;28;20400;-78
2023/09/08 09:30:22;;;;;;;4.30;3.90;;;;;;;;;;4980012;28;20052;-78
2023/09/08 09:32:49;;;;;;;9.48;4.20;;;;;;;;;;4983995;28;20046;-77
2023/09/08 09:35:16;;;;;;;8.95;3.72;;;;;;;;;;4983168;28;20472;-77
2023/09/08 09:37:43;;;;;;;10.07;4.30;;;;;;;;;;4984080;28;20046;-78
2023/09/08 09:40:10;;;;;;;5.65;3.80;;;;;;;;;;4979900;28;20031;-77
2023/09/08 09:42:42;;;;;;;9.45;3.72;;;;;;;;;;4981050;28;20388;-77
2023/09/08 09:45:09;;;;;;;5.70;3.85;;;;;;;;;;4983864;28;20436;-77
2023/09/08 09:47:35;;;;;;;6.45;3.28;;;;;;;;;;4980760;28;20105;-77
2023/09/08 09:50:02;;;;;;;5.68;4.20;;;;;;;;;;4979963;28;20045;-76
2023/09/08 09:52:30;;;;;;;8.77;4.53;;;;;;;;;;4986876;28;20034;-77
2023/09/08 09:54:56;;;;;;;5.03;3.42;;;;;;;;;;4986316;28;20046;-77
2023/09/08 09:57:23;;;;;;;7.30;3.67;;;;;;;;;;4988530;28;20030;-74
2023/09/08 09:59:50;;;;;;;5.32;3.92;;;;;;;;;;4990746;28;20034;-74
2023/09/08 10:02:17;;;;;;;6.97;3.10;;;;;;;;;;4984193;28;20034;-74
2023/09/08 10:04:43;;;;;;;7.90;3.60;;;;;;;;;;4979203;28;20112;-78
2023/09/08 10:07:09;;;;;;;6.07;3.20;;;;;;;;;;4981967;28;20075;-76
2023/09/08 10:09:36;;;;;;;7.05;3.10;;;;;;;;;;4978518;28;20053;-77
2023/09/08 10:12:06;;;;;;;9.85;3.28;;;;;;;;;;4999427;28;20117;-76
2023/09/08 10:14:33;;;;;;;5.85;3.30;;;;;;;;;;4977634;28;20071;-76
2023/09/08 10:17:00;;;;;;;7.35;3.63;;;;;;;;;;4984062;28;20022;-76
2023/09/08 10:19:26;;;;;;;7.93;3.58;;;;;;;;;;4984573;28;20082;-76
2023/09/08 10:21:55;;;;;;;3.88;3.33;;;;;;;;;;4980147;28;20073;-76
2023/09/08 10:24:28;;;;;;;6.75;3.45;;;;;;;;;;4980199;28;20141;-75
2023/09/08 10:27:13;;;;;;;5.20;3.63;;;;;;;;;;4984494;28;20044;-80
2023/09/08 10:29:39;;;;;;;5.22;2.80;;;;;;;;;;4986598;28;20130;-79
2023/09/08 10:32:07;;;;;;;5.70;3.30;;;;;;;;;;4984880;28;20065;-76
2023/09/08 10:34:34;;;;;;;6.45;3.50;;;;;;;;;;4985330;28;20061;-80
2023/09/08 10:37:00;;;;;;;4.78;3.03;;;;;;;;;;4982582;28;20030;-80
2023/09/08 10:39:38;;;;;;;4.53;3.03;;;;;;;;;;4978873;28;20041;-81
2023/09/08 10:42:17;;;;;;;8.82;2.85;;;;;;;;;;4981763;28;20053;-81
2023/09/08 10:44:44;;;;;;;4.65;3.03;;;;;;;;;;4993919;28;20102;-80
2023/09/08 10:47:11;;;;;;;7.47;3.58;;;;;;;;;;4984539;28;20030;-82
2023/09/08 10:49:38;;;;;;;6.93;3.40;;;;;;;;;;4988692;28;20088;-81
2023/09/08 10:52:11;;;;;;;6.28;3.10;;;;;;;;;;4988833;28;20157;-82
2023/09/08 10:54:44;;;;;;;7.05;3.63;;;;;;;;;;4985753;28;20065;-81
2023/09/08 10:57:14;;;;;;;6.13;3.22;;;;;;;;;;4988763;28;20034;-84
2023/09/08 10:59:40;;;;;;;6.53;3.40;;;;;;;;;;4983793;28;20037;-90
2023/09/08 11:02:06;;;;;;;4.22;3.47;;;;;;;;;;4988094;28;20053;-91
2023/09/08 11:04:35;;;;;;;8.05;3.65;;;;;;;;;;4986503;28;20031;-90
2023/09/08 11:07:02;;;;;;;10.27;3.38;;;;;;;;;;4984311;28;20118;-90
2023/09/08 11:09:28;;;;;;;9.63;3.40;;;;;;;;;;4982922;28;20112;-77
2023/09/08 11:11:54;;;;;;;5.65;4.00;;;;;;;;;;4985469;28;20426;-77
2023/09/08 11:14:20;;;;;;;8.73;3.30;;;;;;;;;;4988906;28;20097;-78
2023/09/08 11:16:46;;;;;;;5.88;3.05;;;;;;;;;;4979142;28;20043;-77
2023/09/08 11:19:13;;;;;;;5.70;3.13;;;;;;;;;;4983907;28;20026;-77
2023/09/08 11:21:39;;;;;;;4.53;3.30;;;;;;;;;;4983301;28;20072;-75
2023/09/08 11:24:06;;;;;;;7.65;3.13;;;;;;;;;;4983313;28;20500;-76
2023/09/08 11:26:35;;;;;;;8.75;3.50;;;;;;;;;;4983766;28;20077;-76
2023/09/08 11:29:01;;;;;;;7.70;3.58;;;;;;;;;;5001525;28;20470;-77
2023/09/08 11:31:27;;;;;;;6.85;3.47;;;;;;;;;;4986035;28;20070;-77
2023/09/08 11:33:55;;;;;;;7.43;4.13;;;;;;;;;;4984281;28;20043;-76
2023/09/08 11:36:21;;;;;;;7.00;3.33;;;;;;;;;;4977109;28;20485;-78
2023/09/08 11:38:47;;;;;;;4.70;3.22;;;;;;;;;;4978404;28;20560;-78
2023/09/08 11:41:14;;;;;;;6.15;3.70;;;;;;;;;;4982350;28;20396;-77
2023/09/08 11:43:40;;;;;;;8.95;3.42;;;;;;;;;;4984093;28;20106;-77
2023/09/08 11:46:06;;;;;;;7.72;3.10;;;;;;;;;;4979610;28;20050;-77
2023/09/08 11:48:33;;;;;;;5.95;3.38;;;;;;;;;;4985416;28;20038;-78
2023/09/08 11:50:59;;;;;;;4.75;3.10;;;;;;;;;;4977758;28;20030;-77
2023/09/08 11:53:27;;;;;;;5.88;3.38;;;;;;;;;;4985914;28;20488;-77
2023/09/08 11:55:53;;;;;;;8.23;3.70;;;;;;;;;;4982038;28;20034;-77
2023/09/08 11:58:19;;;;;;;5.00;3.13;;;;;;;;;;4987926;28;20088;-77
2023/09/08 12:00:47;;;;;;;6.55;3.45;;;;;;;;;;5002929;28;20081;-77
2023/09/08 12:03:17;;;;;;;5.15;3.53;;;;;;;;;;4986575;28;20061;-78
2023/09/08 12:05:44;;;;;;;8.68;3.25;;;;;;;;;;4982566;28;20023;-77
2023/09/08 12:08:10;;;;;;;9.98;4.07;;;;;;;;;;4984549;28;20038;-76
2023/09/08 12:10:41;;;;;;;5.63;3.30;;;;;;;;;;4989682;28;20361;-77
2023/09/08 12:13:07;;;;;;;6.35;3.50;;;;;;;;;;4987375;28;20050;-78
2023/09/08 12:15:40;;;;;;;11.48;3.85;;;;;;;;;;4982890;28;20034;-77
2023/09/08 12:18:07;;;;;;;13.57;3.55;;;;;;;;;;4984356;28;20028;-77
2023/09/08 12:20:33;;;;;;;7.20;3.45;;;;;;;;;;4984032;28;20104;-76
2023/09/08 12:23:01;;;;;;;8.02;3.85;;;;;;;;;;4995041;28;20035;-75
2023/09/08 12:25:28;;;;;;;13.70;4.15;;;;;;;;;;4988942;28;20031;-76
2023/09/08 12:27:54;;;;;;;5.35;3.70;;;;;;;;;;4986618;28;20239;-76
2023/09/08 12:30:22;;;;;;;5.72;3.40;;;;;;;;;;4988304;28;20125;-77
2023/09/08 12:32:49;;;;;;;4.07;3.03;;;;;;;;;;4985737;28;20069;-76
2023/09/08 12:35:21;;;;;;;9.02;3.40;;;;;;;;;;4984682;28;20034;-76
2023/09/08 12:37:48;;;;;;;8.00;3.47;;;;;;;;;;4984172;28;20035;-76
2023/09/08 12:40:15;;;;;;;15.82;3.70;;;;;;;;;;4988223;28;20038;-76
2023/09/08 12:42:41;;;;;;;8.02;3.47;;;;;;;;;;4989735;28;20062;-77
2023/09/08 12:45:07;;;;;;;6.47;3.50;;;;;;;;;;4986593;28;20035;-78
2023/09/08 12:47:35;;;;;;;4.30;3.13;;;;;;;;;;4987088;28;20045;-76
2023/09/08 12:50:01;;;;;;;13.77;3.80;;;;;;;;;;4987136;28;20029;-77
2023/09/08 12:52:27;;;;;;;7.00;3.45;;;;;;;;;;4988220;28;20038;-77
2023/09/08 12:54:53;;;;;;;5.22;3.83;;;;;;;;;;4977758;28;20031;-76
2023/09/08 12:57:19;;;;;;;6.43;3.10;;;;;;;;;;4981747;28;20358;-77
2023/09/08 12:59:45;;;;;;;5.13;2.90;;;;;;;;;;4985648;28;20052;-77
2023/09/08 13:02:12;;;;;;;9.02;3.00;;;;;;;;;;4976267;28;20067;-77
2023/09/08 13:04:38;;;;;;;8.65;2.97;;;;;;;;;;4977384;28;20608;-78
2023/09/08 13:07:04;;;;;;;8.18;3.42;;;;;;;;;;4985633;28;20042;-76
2023/09/08 13:09:30;;;;;;;7.22;3.78;;;;;;;;;;4987550;28;20035;-76
2023/09/08 13:11:56;;;;;;;5.90;3.45;;;;;;;;;;4986269;28;20530;-78
2023/09/08 13:14:22;;;;;;;5.15;3.15;;;;;;;;;;4988425;28;20137;-77
2023/09/08 13:16:48;;;;;;;5.03;3.47;;;;;;;;;;4983449;28;20038;-76
2023/09/08 13:19:14;;;;;;;5.68;3.03;;;;;;;;;;4988140;28;20044;-76
2023/09/08 13:21:40;;;;;;;5.32;3.35;;;;;;;;;;4981315;28;20066;-85
2023/09/08 13:24:07;;;;;;;5.95;2.97;;;;;;;;;;5001689;28;20034;-79
2023/09/08 13:26:34;;;;;;;4.53;2.72;;;;;;;;;;4985279;28;20041;-78
2023/09/08 13:29:00;;;;;;;5.90;3.28;;;;;;;;;;4986384;28;20049;-78
2023/09/08 13:31:26;;;;;;;9.23;3.20;;;;;;;;;;4980551;28;20043;-78
2023/09/08 13:33:52;;;;;;;8.13;3.20;;;;;;;;;;4985966;28;20042;-78
2023/09/08 13:36:18;;;;;;;5.38;3.40;;;;;;;;;;4986515;28;20041;-78
2023/09/08 13:38:44;;;;;;;3.53;3.17;;;;;;;;;;4981268;28;20042;-78
2023/09/08 13:41:10;;;;;;;5.40;3.10;;;;;;;;;;4987737;28;20050;-78
2023/09/08 13:43:36;;;;;;;5.68;3.22;;;;;;;;;;4981816;28;20089;-79
2023/09/08 13:46:02;;;;;;;6.00;3.25;;;;;;;;;;4986354;28;20042;-79
2023/09/08 13:48:28;;;;;;;3.40;3.10;;;;;;;;;;4987101;28;20038;-79
2023/09/08 13:50:55;;;;;;;6.13;3.20;;;;;;;;;;4983167;28;20107;-83
2023/09/08 13:53:22;;;;;;;5.07;3.15;;;;;;;;;;4977499;28;20038;-78
2023/09/08 13:55:48;;;;;;;4.18;2.90;;;;;;;;;;4983836;28;20037;-78
2023/09/08 13:58:14;;;;;;;4.18;3.33;;;;;;;;;;4981618;28;20042;-82
2023/09/08 14:00:40;;;;;;;4.53;2.85;;;;;;;;;;4978811;28;20034;-81
2023/09/08 14:03:06;;;;;;;6.88;3.03;;;;;;;;;;4987973;28;20045;-80
2023/09/08 14:05:32;;;;;;;5.80;3.40;;;;;;;;;;4985720;28;20489;-81
2023/09/08 14:07:58;;;;;;;3.60;2.75;;;;;;;;;;4984841;28;20371;-81
2023/09/08 14:10:24;;;;;;;8.93;2.92;;;;;;;;;;4982758;28;20507;-81
2023/09/08 14:12:50;;;;;;;5.40;2.72;;;;;;;;;;4984869;28;20042;-81
2023/09/08 14:15:16;;;;;;;8.20;3.10;;;;;;;;;;4979946;28;20056;-82
2023/09/08 14:17:42;;;;;;;3.47;2.80;;;;;;;;;;4983708;28;20057;-75
2023/09/08 14:20:09;;;;;;;3.35;3.05;;;;;;;;;;4976210;28;20086;-76
2023/09/08 14:22:35;;;;;;;9.70;3.13;;;;;;;;;;4992389;28;20030;-76
2023/09/08 14:25:01;;;;;;;10.10;2.65;;;;;;;;;;4985311;28;20389;-77
2023/09/08 14:27:27;;;;;;;6.57;2.85;;;;;;;;;;4987064;28;20054;-77
2023/09/08 14:29:54;;;;;;;7.47;3.30;;;;;;;;;;4986996;28;20038;-76
2023/09/08 14:32:20;;;;;;;6.60;2.92;;;;;;;;;;4986446;28;20480;-77
2023/09/08 14:34:46;;;;;;;8.65;2.92;;;;;;;;;;4988768;28;20041;-76